sensor_id;sensor_type;location;lat;lon;timestamp;P1;durP1;ratioP1;P2;durP2;ratioP2
61897;SDS011;47850;50.274;18.908;2022-09-24T00:00:34;35.60;;;21.40;;
61897;SDS011;47850;50.274;18.908;2022-09-24T00:03:18;39.60;;;20.80;;
61897;SDS011;47850;50.274;18.908;2022-09-24T00:06:07;33.80;;;20.10;;
61897;SDS011;47850;50.274;18.908;2022-09-24T00:08:52;40.50;;;23.90;;
61897;SDS011;47850;50.274;18.908;2022-09-24T00:11:41;43.20;;;23.90;;
61897;SDS011;47850;50.274;18.908;2022-09-24T00:14:28;40.90;;;22.40;;
61897;SDS011;47850;50.274;18.908;2022-09-24T00:17:12;40.50;;;22.20;;
61897;SDS011;47850;50.274;18.908;2022-09-24T00:19:56;31.20;;;18.80;;
61897;SDS011;47850;50.274;18.908;2022-09-24T00:22:41;33.20;;;18.90;;
61897;SDS011;47850;50.274;18.908;2022-09-24T00:25:25;35.30;;;19.70;;
61897;SDS011;47850;50.274;18.908;2022-09-24T00:28:28;36.70;;;20.10;;
61897;SDS011;47850;50.274;18.908;2022-09-24T00:31:13;37.70;;;20.70;;
61897;SDS011;47850;50.274;18.908;2022-09-24T00:33:57;33.40;;;19.90;;
61897;SDS011;47850;50.274;18.908;2022-09-24T00:36:41;37.40;;;21.50;;
61897;SDS011;47850;50.274;18.908;2022-09-24T00:39:29;36.70;;;20.20;;
61897;SDS011;47850;50.274;18.908;2022-09-24T00:42:13;38.60;;;22.50;;
61897;SDS011;47850;50.274;18.908;2022-09-24T00:44:57;35.70;;;20.30;;
61897;SDS011;47850;50.274;18.908;2022-09-24T00:47:41;37.50;;;21.60;;
61897;SDS011;47850;50.274;18.908;2022-09-24T00:50:28;39.30;;;21.20;;
61897;SDS011;47850;50.274;18.908;2022-09-24T00:53:17;39.30;;;20.80;;
61897;SDS011;47850;50.274;18.908;2022-09-24T00:56:04;47.40;;;21.90;;
61897;SDS011;47850;50.274;18.908;2022-09-24T00:58:52;43.70;;;23.30;;
61897;SDS011;47850;50.274;18.908;2022-09-24T01:01:39;39.80;;;24.00;;
61897;SDS011;47850;50.274;18.908;2022-09-24T01:04:24;39.80;;;22.00;;
61897;SDS011;47850;50.274;18.908;2022-09-24T01:07:11;37.80;;;22.70;;
61897;SDS011;47850;50.274;18.908;2022-09-24T01:09:55;43.40;;;22.70;;
61897;SDS011;47850;50.274;18.908;2022-09-24T01:12:45;40.90;;;22.90;;
61897;SDS011;47850;50.274;18.908;2022-09-24T01:15:46;38.20;;;22.40;;
61897;SDS011;47850;50.274;18.908;2022-09-24T01:22:02;41.30;;;22.90;;
61897;SDS011;47850;50.274;18.908;2022-09-24T01:24:59;38.20;;;21.50;;
61897;SDS011;47850;50.274;18.908;2022-09-24T01:31:03;41.80;;;22.70;;
61897;SDS011;47850;50.274;18.908;2022-09-24T01:33:51;40.70;;;22.20;;
61897;SDS011;47850;50.274;18.908;2022-09-24T01:36:39;42.30;;;23.20;;
61897;SDS011;47850;50.274;18.908;2022-09-24T01:39:25;38.90;;;21.30;;
61897;SDS011;47850;50.274;18.908;2022-09-24T01:42:10;37.60;;;21.90;;
61897;SDS011;47850;50.274;18.908;2022-09-24T01:44:56;37.10;;;20.70;;
61897;SDS011;47850;50.274;18.908;2022-09-24T01:47:41;45.90;;;23.90;;
61897;SDS011;47850;50.274;18.908;2022-09-24T01:50:30;37.40;;;21.30;;
61897;SDS011;47850;50.274;18.908;2022-09-24T01:53:31;38.50;;;22.60;;
61897;SDS011;47850;50.274;18.908;2022-09-24T01:56:37;39.20;;;21.80;;
61897;SDS011;47850;50.274;18.908;2022-09-24T02:02:12;40.50;;;22.30;;
61897;SDS011;47850;50.274;18.908;2022-09-24T02:05:02;40.00;;;22.50;;
61897;SDS011;47850;50.274;18.908;2022-09-24T02:11:08;42.10;;;24.40;;
61897;SDS011;47850;50.274;18.908;2022-09-24T02:16:45;34.50;;;20.40;;
61897;SDS011;47850;50.274;18.908;2022-09-24T02:19:30;38.40;;;21.10;;
61897;SDS011;47850;50.274;18.908;2022-09-24T02:22:19;43.80;;;23.60;;
61897;SDS011;47850;50.274;18.908;2022-09-24T02:25:03;44.30;;;23.00;;
61897;SDS011;47850;50.274;18.908;2022-09-24T02:27:51;43.70;;;23.50;;
61897;SDS011;47850;50.274;18.908;2022-09-24T02:30:43;40.80;;;21.10;;
61897;SDS011;47850;50.274;18.908;2022-09-24T02:33:33;41.20;;;22.20;;
61897;SDS011;47850;50.274;18.908;2022-09-24T02:36:38;37.40;;;21.30;;
61897;SDS011;47850;50.274;18.908;2022-09-24T02:39:23;38.70;;;22.90;;
61897;SDS011;47850;50.274;18.908;2022-09-24T02:42:08;40.40;;;22.80;;
61897;SDS011;47850;50.274;18.908;2022-09-24T02:44:56;35.00;;;20.10;;
61897;SDS011;47850;50.274;18.908;2022-09-24T02:47:42;34.00;;;19.70;;
61897;SDS011;47850;50.274;18.908;2022-09-24T02:50:27;36.10;;;21.00;;
61897;SDS011;47850;50.274;18.908;2022-09-24T02:53:11;41.10;;;21.30;;
61897;SDS011;47850;50.274;18.908;2022-09-24T02:55:55;39.30;;;22.30;;
61897;SDS011;47850;50.274;18.908;2022-09-24T02:58:39;41.20;;;21.50;;
61897;SDS011;47850;50.274;18.908;2022-09-24T03:01:24;32.80;;;18.60;;
61897;SDS011;47850;50.274;18.908;2022-09-24T03:04:08;31.80;;;18.70;;
61897;SDS011;47850;50.274;18.908;2022-09-24T03:06:52;37.90;;;21.90;;
61897;SDS011;47850;50.274;18.908;2022-09-24T03:09:36;35.70;;;21.60;;
61897;SDS011;47850;50.274;18.908;2022-09-24T03:12:21;39.90;;;22.30;;
61897;SDS011;47850;50.274;18.908;2022-09-24T03:15:05;37.70;;;22.00;;
61897;SDS011;47850;50.274;18.908;2022-09-24T03:17:49;40.90;;;22.30;;
61897;SDS011;47850;50.274;18.908;2022-09-24T03:20:33;32.40;;;19.80;;
61897;SDS011;47850;50.274;18.908;2022-09-24T03:23:17;36.00;;;19.90;;
61897;SDS011;47850;50.274;18.908;2022-09-24T03:26:02;37.10;;;20.80;;
61897;SDS011;47850;50.274;18.908;2022-09-24T03:28:47;40.60;;;23.00;;
61897;SDS011;47850;50.274;18.908;2022-09-24T03:31:31;36.60;;;19.40;;
61897;SDS011;47850;50.274;18.908;2022-09-24T03:34:15;32.80;;;19.90;;
61897;SDS011;47850;50.274;18.908;2022-09-24T03:36:59;30.40;;;18.90;;
61897;SDS011;47850;50.274;18.908;2022-09-24T03:39:43;35.00;;;20.20;;
61897;SDS011;47850;50.274;18.908;2022-09-24T03:42:27;34.40;;;18.60;;
61897;SDS011;47850;50.274;18.908;2022-09-24T03:45:11;33.00;;;20.00;;
61897;SDS011;47850;50.274;18.908;2022-09-24T03:47:55;36.40;;;20.20;;
61897;SDS011;47850;50.274;18.908;2022-09-24T03:50:39;40.30;;;21.80;;
61897;SDS011;47850;50.274;18.908;2022-09-24T03:53:24;37.10;;;22.30;;
61897;SDS011;47850;50.274;18.908;2022-09-24T03:56:08;33.70;;;20.70;;
61897;SDS011;47850;50.274;18.908;2022-09-24T03:58:54;37.40;;;23.60;;
61897;SDS011;47850;50.274;18.908;2022-09-24T04:01:38;32.80;;;20.20;;
61897;SDS011;47850;50.274;18.908;2022-09-24T04:04:07;34.40;;;20.40;;
61897;SDS011;47850;50.274;18.908;2022-09-24T04:06:37;38.70;;;21.40;;
61897;SDS011;47850;50.274;18.908;2022-09-24T04:09:06;36.60;;;22.40;;
61897;SDS011;47850;50.274;18.908;2022-09-24T04:11:36;38.10;;;23.00;;
61897;SDS011;47850;50.274;18.908;2022-09-24T04:14:06;39.00;;;24.10;;
61897;SDS011;47850;50.274;18.908;2022-09-24T04:16:35;45.10;;;25.90;;
61897;SDS011;47850;50.274;18.908;2022-09-24T04:19:05;49.30;;;26.90;;
61897;SDS011;47850;50.274;18.908;2022-09-24T04:21:36;38.40;;;22.70;;
61897;SDS011;47850;50.274;18.908;2022-09-24T04:24:06;36.70;;;23.10;;
61897;SDS011;47850;50.274;18.908;2022-09-24T04:26:35;35.10;;;21.00;;
61897;SDS011;47850;50.274;18.908;2022-09-24T04:29:05;35.60;;;22.00;;
61897;SDS011;47850;50.274;18.908;2022-09-24T04:31:36;36.30;;;19.80;;
61897;SDS011;47850;50.274;18.908;2022-09-24T04:36:37;29.20;;;18.50;;
61897;SDS011;47850;50.274;18.908;2022-09-24T04:39:06;32.20;;;20.90;;
61897;SDS011;47850;50.274;18.908;2022-09-24T04:41:36;35.70;;;20.20;;
61897;SDS011;47850;50.274;18.908;2022-09-24T04:44:08;38.50;;;22.30;;
61897;SDS011;47850;50.274;18.908;2022-09-24T04:46:39;33.00;;;19.80;;
61897;SDS011;47850;50.274;18.908;2022-09-24T04:49:09;31.90;;;18.70;;
61897;SDS011;47850;50.274;18.908;2022-09-24T04:51:38;32.00;;;19.60;;
61897;SDS011;47850;50.274;18.908;2022-09-24T04:54:08;33.50;;;20.90;;
61897;SDS011;47850;50.274;18.908;2022-09-24T04:56:38;37.20;;;22.10;;
61897;SDS011;47850;50.274;18.908;2022-09-24T04:59:07;38.20;;;21.10;;
61897;SDS011;47850;50.274;18.908;2022-09-24T05:01:37;35.80;;;21.20;;
61897;SDS011;47850;50.274;18.908;2022-09-24T05:04:06;34.70;;;21.10;;
61897;SDS011;47850;50.274;18.908;2022-09-24T05:06:52;31.80;;;20.20;;
61897;SDS011;47850;50.274;18.908;2022-09-24T05:09:37;30.50;;;18.70;;
61897;SDS011;47850;50.274;18.908;2022-09-24T05:12:21;34.00;;;20.20;;
61897;SDS011;47850;50.274;18.908;2022-09-24T05:14:51;31.90;;;18.60;;
61897;SDS011;47850;50.274;18.908;2022-09-24T05:17:20;28.90;;;18.80;;
61897;SDS011;47850;50.274;18.908;2022-09-24T05:19:50;40.10;;;21.30;;
61897;SDS011;47850;50.274;18.908;2022-09-24T05:22:19;30.60;;;18.30;;
61897;SDS011;47850;50.274;18.908;2022-09-24T05:24:49;24.70;;;15.90;;
61897;SDS011;47850;50.274;18.908;2022-09-24T05:27:18;27.10;;;17.50;;
61897;SDS011;47850;50.274;18.908;2022-09-24T05:29:49;29.90;;;18.60;;
61897;SDS011;47850;50.274;18.908;2022-09-24T05:32:19;31.00;;;18.20;;
61897;SDS011;47850;50.274;18.908;2022-09-24T05:35:02;28.70;;;18.40;;
61897;SDS011;47850;50.274;18.908;2022-09-24T05:37:36;26.60;;;17.10;;
61897;SDS011;47850;50.274;18.908;2022-09-24T05:40:06;34.80;;;20.80;;
61897;SDS011;47850;50.274;18.908;2022-09-24T05:43:01;32.10;;;20.60;;
61897;SDS011;47850;50.274;18.908;2022-09-24T05:45:29;32.00;;;21.20;;
61897;SDS011;47850;50.274;18.908;2022-09-24T05:48:00;31.70;;;21.60;;
61897;SDS011;47850;50.274;18.908;2022-09-24T05:50:30;36.80;;;24.00;;
61897;SDS011;47850;50.274;18.908;2022-09-24T05:53:01;38.00;;;21.10;;
61897;SDS011;47850;50.274;18.908;2022-09-24T05:55:31;37.30;;;21.80;;
61897;SDS011;47850;50.274;18.908;2022-09-24T05:58:05;32.50;;;22.00;;
61897;SDS011;47850;50.274;18.908;2022-09-24T06:00:36;39.70;;;23.60;;
61897;SDS011;47850;50.274;18.908;2022-09-24T06:03:15;36.50;;;22.20;;
61897;SDS011;47850;50.274;18.908;2022-09-24T06:05:46;34.60;;;23.90;;
61897;SDS011;47850;50.274;18.908;2022-09-24T06:08:18;36.90;;;23.60;;
61897;SDS011;47850;50.274;18.908;2022-09-24T06:10:49;40.60;;;24.50;;
61897;SDS011;47850;50.274;18.908;2022-09-24T06:13:16;38.10;;;23.60;;
61897;SDS011;47850;50.274;18.908;2022-09-24T06:15:47;46.00;;;26.20;;
61897;SDS011;47850;50.274;18.908;2022-09-24T06:18:16;49.50;;;27.20;;
61897;SDS011;47850;50.274;18.908;2022-09-24T06:20:46;44.00;;;28.00;;
61897;SDS011;47850;50.274;18.908;2022-09-24T06:23:26;39.50;;;25.30;;
61897;SDS011;47850;50.274;18.908;2022-09-24T06:25:56;42.30;;;25.10;;
61897;SDS011;47850;50.274;18.908;2022-09-24T06:30:58;34.00;;;20.80;;
61897;SDS011;47850;50.274;18.908;2022-09-24T06:33:28;33.20;;;19.40;;
61897;SDS011;47850;50.274;18.908;2022-09-24T06:35:59;25.90;;;16.90;;
61897;SDS011;47850;50.274;18.908;2022-09-24T06:38:30;28.60;;;17.70;;
61897;SDS011;47850;50.274;18.908;2022-09-24T06:40:59;28.90;;;16.40;;
61897;SDS011;47850;50.274;18.908;2022-09-24T06:43:31;25.20;;;15.50;;
61897;SDS011;47850;50.274;18.908;2022-09-24T06:46:02;21.80;;;14.70;;
61897;SDS011;47850;50.274;18.908;2022-09-24T06:48:31;27.30;;;16.90;;
61897;SDS011;47850;50.274;18.908;2022-09-24T06:51:03;23.10;;;14.70;;
61897;SDS011;47850;50.274;18.908;2022-09-24T06:53:33;23.90;;;14.70;;
61897;SDS011;47850;50.274;18.908;2022-09-24T06:56:02;25.50;;;14.10;;
61897;SDS011;47850;50.274;18.908;2022-09-24T06:58:32;23.80;;;13.70;;
61897;SDS011;47850;50.274;18.908;2022-09-24T07:01:02;20.50;;;13.50;;
61897;SDS011;47850;50.274;18.908;2022-09-24T07:03:32;24.10;;;13.00;;
61897;SDS011;47850;50.274;18.908;2022-09-24T07:06:04;15.70;;;10.60;;
61897;SDS011;47850;50.274;18.908;2022-09-24T07:08:35;16.30;;;10.50;;
61897;SDS011;47850;50.274;18.908;2022-09-24T07:11:04;20.10;;;12.30;;
61897;SDS011;47850;50.274;18.908;2022-09-24T07:13:34;19.50;;;12.00;;
61897;SDS011;47850;50.274;18.908;2022-09-24T07:16:04;21.50;;;11.10;;
61897;SDS011;47850;50.274;18.908;2022-09-24T07:18:33;19.90;;;11.70;;
61897;SDS011;47850;50.274;18.908;2022-09-24T07:21:03;18.10;;;11.30;;
61897;SDS011;47850;50.274;18.908;2022-09-24T07:23:33;19.50;;;11.10;;
61897;SDS011;47850;50.274;18.908;2022-09-24T07:26:03;19.00;;;11.70;;
61897;SDS011;47850;50.274;18.908;2022-09-24T07:28:32;15.60;;;10.10;;
61897;SDS011;47850;50.274;18.908;2022-09-24T07:31:02;16.10;;;10.90;;
61897;SDS011;47850;50.274;18.908;2022-09-24T07:33:32;16.70;;;10.00;;
61897;SDS011;47850;50.274;18.908;2022-09-24T07:36:02;19.10;;;10.90;;
61897;SDS011;47850;50.274;18.908;2022-09-24T07:38:35;21.00;;;10.70;;
61897;SDS011;47850;50.274;18.908;2022-09-24T07:41:05;15.70;;;10.80;;
61897;SDS011;47850;50.274;18.908;2022-09-24T07:43:36;20.40;;;11.10;;
61897;SDS011;47850;50.274;18.908;2022-09-24T07:46:06;16.10;;;9.70;;
61897;SDS011;47850;50.274;18.908;2022-09-24T07:48:36;17.50;;;10.20;;
61897;SDS011;47850;50.274;18.908;2022-09-24T07:51:08;16.90;;;9.90;;
61897;SDS011;47850;50.274;18.908;2022-09-24T07:53:38;15.20;;;9.20;;
61897;SDS011;47850;50.274;18.908;2022-09-24T07:56:08;15.90;;;9.60;;
61897;SDS011;47850;50.274;18.908;2022-09-24T07:58:37;14.60;;;8.70;;
61897;SDS011;47850;50.274;18.908;2022-09-24T08:01:10;13.50;;;8.40;;
61897;SDS011;47850;50.274;18.908;2022-09-24T08:03:41;16.80;;;9.00;;
61897;SDS011;47850;50.274;18.908;2022-09-24T08:06:11;16.60;;;9.40;;
61897;SDS011;47850;50.274;18.908;2022-09-24T08:08:41;14.40;;;9.20;;
61897;SDS011;47850;50.274;18.908;2022-09-24T08:11:11;13.90;;;8.30;;
61897;SDS011;47850;50.274;18.908;2022-09-24T08:13:41;14.50;;;8.70;;
61897;SDS011;47850;50.274;18.908;2022-09-24T08:16:11;16.00;;;9.60;;
61897;SDS011;47850;50.274;18.908;2022-09-24T08:18:41;12.60;;;9.60;;
61897;SDS011;47850;50.274;18.908;2022-09-24T08:21:11;15.40;;;8.40;;
61897;SDS011;47850;50.274;18.908;2022-09-24T08:23:43;19.10;;;9.70;;
61897;SDS011;47850;50.274;18.908;2022-09-24T08:26:13;24.80;;;11.50;;
61897;SDS011;47850;50.274;18.908;2022-09-24T08:28:43;18.70;;;11.90;;
61897;SDS011;47850;50.274;18.908;2022-09-24T08:31:13;17.10;;;11.00;;
61897;SDS011;47850;50.274;18.908;2022-09-24T08:33:42;17.00;;;10.10;;
61897;SDS011;47850;50.274;18.908;2022-09-24T08:36:14;16.30;;;10.30;;
61897;SDS011;47850;50.274;18.908;2022-09-24T08:38:44;18.60;;;11.50;;
61897;SDS011;47850;50.274;18.908;2022-09-24T08:44:12;17.60;;;11.80;;
61897;SDS011;47850;50.274;18.908;2022-09-24T08:47:09;19.20;;;11.90;;
61897;SDS011;47850;50.274;18.908;2022-09-24T08:49:54;20.50;;;12.70;;
61897;SDS011;47850;50.274;18.908;2022-09-24T08:55:27;16.70;;;10.60;;
61897;SDS011;47850;50.274;18.908;2022-09-24T09:01:04;12.30;;;7.70;;
61897;SDS011;47850;50.274;18.908;2022-09-24T09:09:58;10.00;;;7.50;;
61897;SDS011;47850;50.274;18.908;2022-09-24T09:12:19;9.70;;;6.90;;
61897;SDS011;47850;50.274;18.908;2022-09-24T09:14:54;11.80;;;7.50;;
61897;SDS011;47850;50.274;18.908;2022-09-24T09:20:22;12.00;;;7.50;;
61897;SDS011;47850;50.274;18.908;2022-09-24T09:22:58;10.40;;;6.80;;
61897;SDS011;47850;50.274;18.908;2022-09-24T09:25:34;12.70;;;8.10;;
61897;SDS011;47850;50.274;18.908;2022-09-24T09:28:12;34.00;;;23.70;;
61897;SDS011;47850;50.274;18.908;2022-09-24T09:33:35;17.30;;;10.50;;
61897;SDS011;47850;50.274;18.908;2022-09-24T09:36:33;11.40;;;7.70;;
61897;SDS011;47850;50.274;18.908;2022-09-24T09:42:26;12.80;;;8.10;;
61897;SDS011;47850;50.274;18.908;2022-09-24T09:45:18;14.00;;;8.50;;
61897;SDS011;47850;50.274;18.908;2022-09-24T09:47:53;10.10;;;6.70;;
61897;SDS011;47850;50.274;18.908;2022-09-24T09:50:35;15.20;;;10.20;;
61897;SDS011;47850;50.274;18.908;2022-09-24T09:53:25;11.60;;;8.20;;
61897;SDS011;47850;50.274;18.908;2022-09-24T09:55:55;29.00;;;19.40;;
61897;SDS011;47850;50.274;18.908;2022-09-24T09:58:35;46.10;;;26.70;;
61897;SDS011;47850;50.274;18.908;2022-09-24T10:01:09;25.70;;;14.60;;
61897;SDS011;47850;50.274;18.908;2022-09-24T10:06:34;26.00;;;14.80;;
61897;SDS011;47850;50.274;18.908;2022-09-24T10:09:05;18.40;;;10.00;;
61897;SDS011;47850;50.274;18.908;2022-09-24T10:11:47;31.50;;;20.00;;
61897;SDS011;47850;50.274;18.908;2022-09-24T10:14:15;25.30;;;12.30;;
61897;SDS011;47850;50.274;18.908;2022-09-24T10:16:48;19.40;;;10.60;;
61897;SDS011;47850;50.274;18.908;2022-09-24T10:19:23;26.70;;;13.00;;
61897;SDS011;47850;50.274;18.908;2022-09-24T10:21:56;26.30;;;14.60;;
61897;SDS011;47850;50.274;18.908;2022-09-24T10:24:26;8.60;;;5.40;;
61897;SDS011;47850;50.274;18.908;2022-09-24T10:26:57;7.30;;;4.40;;
61897;SDS011;47850;50.274;18.908;2022-09-24T10:29:32;11.70;;;6.90;;
61897;SDS011;47850;50.274;18.908;2022-09-24T10:32:21;18.50;;;11.40;;
61897;SDS011;47850;50.274;18.908;2022-09-24T10:34:56;11.30;;;6.60;;
61897;SDS011;47850;50.274;18.908;2022-09-24T10:37:30;12.70;;;6.30;;
61897;SDS011;47850;50.274;18.908;2022-09-24T10:39:59;13.50;;;8.20;;
61897;SDS011;47850;50.274;18.908;2022-09-24T10:42:30;21.90;;;12.80;;
61897;SDS011;47850;50.274;18.908;2022-09-24T10:44:59;13.10;;;7.60;;
61897;SDS011;47850;50.274;18.908;2022-09-24T10:47:33;11.30;;;6.20;;
61897;SDS011;47850;50.274;18.908;2022-09-24T10:53:05;10.80;;;6.40;;
61897;SDS011;47850;50.274;18.908;2022-09-24T10:55:43;16.70;;;9.40;;
61897;SDS011;47850;50.274;18.908;2022-09-24T10:58:25;8.60;;;5.70;;
61897;SDS011;47850;50.274;18.908;2022-09-24T11:06:53;8.40;;;5.10;;
61897;SDS011;47850;50.274;18.908;2022-09-24T11:24:16;4.60;;;2.90;;
61897;SDS011;47850;50.274;18.908;2022-09-24T11:35:26;10.30;;;5.50;;
61897;SDS011;47850;50.274;18.908;2022-09-24T11:43:19;5.70;;;3.80;;
61897;SDS011;47850;50.274;18.908;2022-09-24T11:46:25;5.20;;;3.70;;
61897;SDS011;47850;50.274;18.908;2022-09-24T11:54:58;3.40;;;2.80;;
61897;SDS011;47850;50.274;18.908;2022-09-24T11:57:40;4.40;;;2.90;;
61897;SDS011;47850;50.274;18.908;2022-09-24T12:00:15;3.90;;;2.30;;
61897;SDS011;47850;50.274;18.908;2022-09-24T12:05:27;8.00;;;3.30;;
61897;SDS011;47850;50.274;18.908;2022-09-24T12:07:59;4.80;;;3.20;;
61897;SDS011;47850;50.274;18.908;2022-09-24T12:13:14;5.60;;;3.90;;
61897;SDS011;47850;50.274;18.908;2022-09-24T12:18:33;6.80;;;3.60;;
61897;SDS011;47850;50.274;18.908;2022-09-24T12:21:12;7.10;;;3.80;;
61897;SDS011;47850;50.274;18.908;2022-09-24T12:23:46;5.20;;;2.80;;
61897;SDS011;47850;50.274;18.908;2022-09-24T12:26:19;4.10;;;3.20;;
61897;SDS011;47850;50.274;18.908;2022-09-24T12:28:57;4.10;;;2.90;;
61897;SDS011;47850;50.274;18.908;2022-09-24T12:32:20;7.50;;;4.30;;
61897;SDS011;47850;50.274;18.908;2022-09-24T12:37:58;12.30;;;3.80;;
61897;SDS011;47850;50.274;18.908;2022-09-24T12:43:24;9.20;;;6.40;;
61897;SDS011;47850;50.274;18.908;2022-09-24T12:46:01;24.70;;;16.70;;
61897;SDS011;47850;50.274;18.908;2022-09-24T12:48:34;9.00;;;4.60;;
61897;SDS011;47850;50.274;18.908;2022-09-24T12:51:06;4.60;;;3.10;;
61897;SDS011;47850;50.274;18.908;2022-09-24T12:53:42;10.70;;;6.00;;
61897;SDS011;47850;50.274;18.908;2022-09-24T12:56:26;3.60;;;2.50;;
61897;SDS011;47850;50.274;18.908;2022-09-24T12:58:57;7.00;;;5.10;;
61897;SDS011;47850;50.274;18.908;2022-09-24T13:01:31;5.60;;;2.80;;
61897;SDS011;47850;50.274;18.908;2022-09-24T13:04:04;7.40;;;2.90;;
61897;SDS011;47850;50.274;18.908;2022-09-24T13:06:43;5.90;;;3.30;;
61897;SDS011;47850;50.274;18.908;2022-09-24T13:09:23;4.20;;;2.40;;
61897;SDS011;47850;50.274;18.908;2022-09-24T13:12:18;6.60;;;3.70;;
61897;SDS011;47850;50.274;18.908;2022-09-24T13:15:00;4.70;;;3.30;;
61897;SDS011;47850;50.274;18.908;2022-09-24T13:17:31;6.60;;;3.60;;
61897;SDS011;47850;50.274;18.908;2022-09-24T13:20:04;5.60;;;3.60;;
61897;SDS011;47850;50.274;18.908;2022-09-24T13:22:36;6.40;;;3.80;;
61897;SDS011;47850;50.274;18.908;2022-09-24T13:27:39;3.20;;;2.30;;
61897;SDS011;47850;50.274;18.908;2022-09-24T13:30:16;12.40;;;5.90;;
61897;SDS011;47850;50.274;18.908;2022-09-24T13:32:58;26.50;;;13.50;;
61897;SDS011;47850;50.274;18.908;2022-09-24T13:36:02;8.70;;;4.00;;
61897;SDS011;47850;50.274;18.908;2022-09-24T13:41:34;10.50;;;6.60;;
61897;SDS011;47850;50.274;18.908;2022-09-24T13:53:03;150.20;;;89.90;;
61897;SDS011;47850;50.274;18.908;2022-09-24T13:55:51;90.80;;;55.60;;
61897;SDS011;47850;50.274;18.908;2022-09-24T13:58:30;41.90;;;27.20;;
61897;SDS011;47850;50.274;18.908;2022-09-24T14:01:09;52.80;;;33.20;;
61897;SDS011;47850;50.274;18.908;2022-09-24T14:03:52;30.00;;;17.90;;
61897;SDS011;47850;50.274;18.908;2022-09-24T14:11:50;29.80;;;18.80;;
61897;SDS011;47850;50.274;18.908;2022-09-24T14:14:22;35.90;;;21.00;;
61897;SDS011;47850;50.274;18.908;2022-09-24T14:17:04;35.90;;;16.20;;
61897;SDS011;47850;50.274;18.908;2022-09-24T14:19:40;18.70;;;12.90;;
61897;SDS011;47850;50.274;18.908;2022-09-24T14:22:13;16.50;;;10.30;;
61897;SDS011;47850;50.274;18.908;2022-09-24T14:25:08;26.20;;;17.10;;
61897;SDS011;47850;50.274;18.908;2022-09-24T14:27:42;33.80;;;23.40;;
61897;SDS011;47850;50.274;18.908;2022-09-24T14:30:17;39.30;;;25.50;;
61897;SDS011;47850;50.274;18.908;2022-09-24T14:32:52;49.50;;;37.30;;
61897;SDS011;47850;50.274;18.908;2022-09-24T14:35:33;65.20;;;46.10;;
61897;SDS011;47850;50.274;18.908;2022-09-24T14:38:07;33.90;;;24.90;;
61897;SDS011;47850;50.274;18.908;2022-09-24T14:40:49;25.80;;;17.00;;
61897;SDS011;47850;50.274;18.908;2022-09-24T14:43:44;23.00;;;15.00;;
61897;SDS011;47850;50.274;18.908;2022-09-24T14:46:22;24.90;;;10.10;;
61897;SDS011;47850;50.274;18.908;2022-09-24T14:49:42;17.40;;;7.70;;
61897;SDS011;47850;50.274;18.908;2022-09-24T14:51:57;16.90;;;10.90;;
61897;SDS011;47850;50.274;18.908;2022-09-24T14:57:35;7.80;;;5.30;;
61897;SDS011;47850;50.274;18.908;2022-09-24T15:05:43;11.00;;;4.50;;
61897;SDS011;47850;50.274;18.908;2022-09-24T15:11:13;12.00;;;6.80;;
61897;SDS011;47850;50.274;18.908;2022-09-24T15:13:55;22.60;;;17.70;;
61897;SDS011;47850;50.274;18.908;2022-09-24T15:16:47;6.30;;;4.40;;
61897;SDS011;47850;50.274;18.908;2022-09-24T15:21:51;9.50;;;6.30;;
61897;SDS011;47850;50.274;18.908;2022-09-24T15:24:24;13.70;;;9.80;;
61897;SDS011;47850;50.274;18.908;2022-09-24T15:29:31;32.60;;;20.10;;
61897;SDS011;47850;50.274;18.908;2022-09-24T15:32:01;26.80;;;20.00;;
61897;SDS011;47850;50.274;18.908;2022-09-24T15:34:41;33.70;;;23.70;;
61897;SDS011;47850;50.274;18.908;2022-09-24T15:37:11;20.60;;;15.40;;
61897;SDS011;47850;50.274;18.908;2022-09-24T15:39:43;20.90;;;14.10;;
61897;SDS011;47850;50.274;18.908;2022-09-24T15:42:17;17.50;;;10.70;;
61897;SDS011;47850;50.274;18.908;2022-09-24T15:44:49;17.90;;;10.80;;
61897;SDS011;47850;50.274;18.908;2022-09-24T15:47:19;17.70;;;9.80;;
61897;SDS011;47850;50.274;18.908;2022-09-24T15:49:49;15.80;;;10.60;;
61897;SDS011;47850;50.274;18.908;2022-09-24T15:52:22;17.00;;;12.40;;
61897;SDS011;47850;50.274;18.908;2022-09-24T15:54:56;25.20;;;19.60;;
61897;SDS011;47850;50.274;18.908;2022-09-24T15:57:44;20.90;;;16.50;;
61897;SDS011;47850;50.274;18.908;2022-09-24T16:00:23;25.10;;;15.70;;
61897;SDS011;47850;50.274;18.908;2022-09-24T16:02:54;35.80;;;19.80;;
61897;SDS011;47850;50.274;18.908;2022-09-24T16:05:25;30.60;;;17.90;;
61897;SDS011;47850;50.274;18.908;2022-09-24T16:07:54;27.70;;;16.80;;
61897;SDS011;47850;50.274;18.908;2022-09-24T16:10:24;35.60;;;19.60;;
61897;SDS011;47850;50.274;18.908;2022-09-24T16:12:54;36.40;;;20.80;;
61897;SDS011;47850;50.274;18.908;2022-09-24T16:15:23;37.20;;;22.70;;
61897;SDS011;47850;50.274;18.908;2022-09-24T16:17:53;34.10;;;20.70;;
61897;SDS011;47850;50.274;18.908;2022-09-24T16:20:22;34.00;;;21.10;;
61897;SDS011;47850;50.274;18.908;2022-09-24T16:22:52;30.30;;;19.00;;
61897;SDS011;47850;50.274;18.908;2022-09-24T16:25:21;27.40;;;16.30;;
61897;SDS011;47850;50.274;18.908;2022-09-24T16:27:51;24.50;;;14.50;;
61897;SDS011;47850;50.274;18.908;2022-09-24T16:30:21;19.10;;;12.50;;
61897;SDS011;47850;50.274;18.908;2022-09-24T16:32:50;21.00;;;12.90;;
61897;SDS011;47850;50.274;18.908;2022-09-24T16:35:20;23.00;;;13.20;;
61897;SDS011;47850;50.274;18.908;2022-09-24T16:37:50;35.70;;;18.30;;
61897;SDS011;47850;50.274;18.908;2022-09-24T16:40:19;33.80;;;18.60;;
61897;SDS011;47850;50.274;18.908;2022-09-24T16:42:49;34.50;;;20.40;;
61897;SDS011;47850;50.274;18.908;2022-09-24T16:45:19;29.80;;;16.60;;
61897;SDS011;47850;50.274;18.908;2022-09-24T16:47:48;21.10;;;12.50;;
61897;SDS011;47850;50.274;18.908;2022-09-24T16:50:18;21.00;;;12.90;;
61897;SDS011;47850;50.274;18.908;2022-09-24T16:52:47;23.00;;;12.20;;
61897;SDS011;47850;50.274;18.908;2022-09-24T16:55:18;19.40;;;11.80;;
61897;SDS011;47850;50.274;18.908;2022-09-24T16:57:47;17.50;;;12.30;;
61897;SDS011;47850;50.274;18.908;2022-09-24T17:00:17;21.90;;;13.10;;
61897;SDS011;47850;50.274;18.908;2022-09-24T17:02:47;19.90;;;12.30;;
61897;SDS011;47850;50.274;18.908;2022-09-24T17:05:17;20.90;;;12.70;;
61897;SDS011;47850;50.274;18.908;2022-09-24T17:07:46;23.60;;;14.70;;
61897;SDS011;47850;50.274;18.908;2022-09-24T17:10:16;49.80;;;27.00;;
61897;SDS011;47850;50.274;18.908;2022-09-24T17:12:47;77.30;;;39.00;;
61897;SDS011;47850;50.274;18.908;2022-09-24T17:15:18;79.70;;;39.40;;
61897;SDS011;47850;50.274;18.908;2022-09-24T17:17:48;93.50;;;44.70;;
61897;SDS011;47850;50.274;18.908;2022-09-24T17:20:18;99.20;;;46.50;;
61897;SDS011;47850;50.274;18.908;2022-09-24T17:22:48;105.10;;;52.90;;
61897;SDS011;47850;50.274;18.908;2022-09-24T17:25:18;114.00;;;56.30;;
61897;SDS011;47850;50.274;18.908;2022-09-24T17:27:47;63.70;;;31.90;;
61897;SDS011;47850;50.274;18.908;2022-09-24T17:30:27;48.50;;;23.10;;